createdAt,value
2022-11-09T00:03:02.057Z,92.87
2022-11-09T00:06:05.377Z,96.05
2022-11-09T00:09:09.853Z,61.55
2022-11-09T00:12:13.237Z,101.10
2022-11-09T00:15:17.815Z,142.37
2022-11-09T00:18:21.168Z,140.80
2022-11-09T00:21:26.448Z,101.15
2022-11-09T00:24:29.760Z,108.53
2022-11-09T00:27:33.080Z,124.90
2022-11-09T00:30:36.359Z,155.00
2022-11-09T00:33:40.017Z,107.90
2022-11-09T00:36:43.391Z,79.68
2022-11-09T00:39:46.836Z,65.05
2022-11-09T00:42:50.106Z,121.03
2022-11-09T00:45:53.485Z,91.40
2022-11-09T00:48:57.409Z,112.53
2022-11-09T00:52:00.690Z,93.28
2022-11-09T00:55:04.410Z,78.63
2022-11-09T00:58:07.707Z,71.35
2022-11-09T01:01:17.484Z,100.17
2022-11-09T01:04:21.147Z,82.67
2022-11-09T01:07:24.595Z,81.53
2022-11-09T01:10:27.940Z,91.25
2022-11-09T01:13:31.440Z,118.28
2022-11-09T01:16:34.773Z,103.50
2022-11-09T01:19:40.406Z,96.20
2022-11-09T01:22:43.726Z,131.30
2022-11-09T01:25:47.219Z,106.55
2022-11-09T01:28:54.009Z,88.00
2022-11-09T01:31:57.306Z,155.23
2022-11-09T01:35:00.601Z,83.13
2022-11-09T01:38:08.394Z,73.50
2022-11-09T01:41:23.785Z,106.30
2022-11-09T01:44:33.744Z,79.47
2022-11-09T01:47:37.052Z,95.23
2022-11-09T01:51:03.545Z,99.83
2022-11-09T01:54:21.913Z,71.18
2022-11-09T01:57:36.503Z,76.32
2022-11-09T02:00:45.011Z,122.65
2022-11-09T02:03:55.537Z,71.67
2022-11-09T02:07:01.974Z,64.33
2022-11-09T02:10:14.735Z,114.28
2022-11-09T02:13:22.867Z,85.03
2022-11-09T02:16:27.856Z,127.03
2022-11-09T02:19:32.296Z,100.83
2022-11-09T02:22:36.146Z,86.80
2022-11-09T02:25:43.594Z,111.68
2022-11-09T02:28:47.558Z,84.03
2022-11-09T02:31:57.312Z,71.95
2022-11-09T02:35:01.000Z,82.70
2022-11-09T02:38:06.414Z,72.43
2022-11-09T02:41:13.164Z,87.43
2022-11-09T02:44:18.473Z,79.20
2022-11-09T02:47:22.323Z,60.58
2022-11-09T02:50:26.577Z,54.13
2022-11-09T02:53:29.985Z,66.37
2022-11-09T02:56:33.733Z,52.22
2022-11-09T02:59:37.522Z,49.97
2022-11-09T03:02:42.927Z,71.10
2022-11-09T03:05:46.260Z,85.67
2022-11-09T03:08:50.731Z,91.17
2022-11-09T03:11:54.187Z,68.07
2022-11-09T03:15:04.248Z,72.15
2022-11-09T03:18:07.864Z,80.72
2022-11-09T03:21:11.277Z,87.77
2022-11-09T03:24:14.572Z,112.50
2022-11-09T03:27:18.844Z,62.75
2022-11-09T03:30:24.185Z,42.30
2022-11-09T03:33:27.545Z,80.80
2022-11-09T03:36:30.941Z,67.10
2022-11-09T03:39:34.609Z,71.03
2022-11-09T03:42:43.109Z,103.25
2022-11-09T03:45:48.003Z,70.30
2022-11-09T03:48:51.310Z,111.55
2022-11-09T03:51:54.575Z,65.83
2022-11-09T03:54:57.865Z,59.47
2022-11-09T03:58:01.227Z,67.63
2022-11-09T04:01:04.871Z,45.47
2022-11-09T04:04:08.386Z,78.70
2022-11-09T04:07:12.331Z,64.73
2022-11-09T04:10:16.451Z,88.50
2022-11-09T04:13:19.921Z,87.32
2022-11-09T04:16:23.429Z,70.85
2022-11-09T04:19:27.294Z,52.03
2022-11-09T04:22:30.641Z,88.50
2022-11-09T04:25:35.969Z,79.80
2022-11-09T04:28:39.251Z,52.47
2022-11-09T04:31:42.559Z,57.90
2022-11-09T04:34:45.904Z,68.43
2022-11-09T04:38:00.793Z,79.67
2022-11-09T04:41:05.368Z,58.30
2022-11-09T04:44:08.687Z,80.07
2022-11-09T04:47:11.996Z,66.18
2022-11-09T04:50:15.413Z,42.90
2022-11-09T04:53:18.726Z,46.27
2022-11-09T04:56:22.385Z,62.33
2022-11-09T04:59:25.714Z,63.08
2022-11-09T05:02:29.080Z,61.42
2022-11-09T05:05:37.213Z,85.00
2022-11-09T05:08:40.762Z,55.37
2022-11-09T05:11:44.039Z,93.03
2022-11-09T05:14:47.326Z,91.55
2022-11-09T05:17:50.584Z,81.10
2022-11-09T05:20:54.006Z,85.20
2022-11-09T05:24:00.389Z,68.90
2022-11-09T05:27:05.119Z,57.70
2022-11-09T05:30:09.078Z,101.70
2022-11-09T05:33:12.502Z,63.15
2022-11-09T05:36:16.009Z,50.45
2022-11-09T05:39:19.344Z,44.13
2022-11-09T05:42:25.020Z,61.57
2022-11-09T05:45:44.335Z,80.63
2022-11-09T05:48:48.800Z,32.50
2022-11-09T05:51:52.076Z,43.83
2022-11-09T05:54:55.486Z,60.50
2022-11-09T05:57:58.865Z,43.03
2022-11-09T06:01:09.452Z,55.83
2022-11-09T06:04:12.788Z,59.58
2022-11-09T06:07:16.317Z,41.67
2022-11-09T06:10:19.757Z,53.63
2022-11-09T06:13:23.228Z,26.93
2022-11-09T06:16:26.993Z,28.75
2022-11-09T06:19:30.275Z,31.20
2022-11-09T06:22:33.574Z,36.17
2022-11-09T06:25:36.840Z,33.60
2022-11-09T06:28:41.879Z,26.50
2022-11-09T06:31:46.191Z,31.85
2022-11-09T06:34:49.914Z,25.27
2022-11-09T06:37:57.744Z,28.92
2022-11-09T06:41:01.105Z,27.97
2022-11-09T06:44:05.635Z,23.17
2022-11-09T06:47:08.912Z,22.10
2022-11-09T06:50:12.627Z,31.63
2022-11-09T06:53:18.126Z,36.22
2022-11-09T06:56:21.814Z,28.77
2022-11-09T06:59:25.134Z,26.37
2022-11-09T07:02:30.945Z,38.60
2022-11-09T07:05:38.079Z,32.33
2022-11-09T07:08:42.165Z,30.08
2022-11-09T07:11:45.588Z,30.10
2022-11-09T07:14:49.432Z,24.93
2022-11-09T07:17:56.487Z,26.35
2022-11-09T07:21:00.098Z,28.98
2022-11-09T07:24:03.684Z,34.55
2022-11-09T07:27:07.091Z,26.10
2022-11-09T07:30:11.210Z,27.80
2022-11-09T07:33:18.132Z,20.98
2022-11-09T07:36:21.950Z,31.40
2022-11-09T07:39:25.361Z,41.47
2022-11-09T07:42:28.749Z,29.10
2022-11-09T07:45:33.783Z,23.67
2022-11-09T07:48:37.405Z,23.92
2022-11-09T07:51:41.555Z,37.33
2022-11-09T07:54:48.225Z,53.10
2022-11-09T07:58:03.074Z,45.17
2022-11-09T08:01:11.034Z,46.17
2022-11-09T08:04:14.776Z,33.55
2022-11-09T08:07:18.215Z,36.03
2022-11-09T08:10:22.410Z,40.28
2022-11-09T08:13:26.526Z,31.53
2022-11-09T08:16:34.839Z,44.37
2022-11-09T08:19:40.823Z,21.83
2022-11-09T08:22:45.733Z,37.45
2022-11-09T08:25:50.747Z,33.45
2022-11-09T08:28:55.865Z,31.50
2022-11-09T08:31:59.410Z,29.30
2022-11-09T08:35:03.712Z,36.85
2022-11-09T08:38:07.271Z,20.63
2022-11-09T08:41:13.647Z,25.02
2022-11-09T08:44:17.423Z,29.30
2022-11-09T08:47:20.798Z,26.97
2022-11-09T08:50:24.094Z,28.38
2022-11-09T08:53:28.891Z,22.02
2022-11-09T08:56:32.665Z,23.77
2022-11-09T08:59:36.477Z,28.07
2022-11-09T09:02:40.369Z,21.03
2022-11-09T09:05:43.734Z,23.95
2022-11-09T09:08:47.273Z,16.55
2022-11-09T09:11:51.397Z,19.10
2022-11-09T09:14:56.299Z,24.70
2022-11-09T09:18:03.627Z,19.03
2022-11-09T09:21:09.773Z,18.73
2022-11-09T09:24:13.443Z,19.10
2022-11-09T09:27:16.737Z,24.40
2022-11-09T09:30:21.397Z,21.93
2022-11-09T09:33:25.550Z,18.47
2022-11-09T09:36:29.047Z,25.40
2022-11-09T09:39:32.515Z,17.88
2022-11-09T09:42:43.705Z,23.30
2022-11-09T09:45:53.462Z,17.70
2022-11-09T09:49:01.971Z,21.57
2022-11-09T09:52:30.891Z,24.10
2022-11-09T09:55:38.505Z,24.90
2022-11-09T09:59:06.164Z,17.10
2022-11-09T10:02:30.602Z,22.47
2022-11-09T10:05:48.275Z,22.43
2022-11-09T10:08:57.868Z,17.50
2022-11-09T10:12:19.560Z,19.00
2022-11-09T10:15:54.610Z,17.95
2022-11-09T10:19:06.623Z,18.17
2022-11-09T10:22:37.737Z,20.30
2022-11-09T10:29:47.113Z,20.70
2022-11-09T10:32:57.232Z,18.75
2022-11-09T10:36:10.221Z,21.57
2022-11-09T10:39:15.598Z,19.47
2022-11-09T10:42:37.552Z,22.67
2022-11-09T10:46:05.759Z,24.33
2022-11-09T10:49:28.007Z,26.05
2022-11-09T10:52:50.542Z,24.97
2022-11-09T10:56:20.400Z,23.87
2022-11-09T10:59:56.696Z,26.05
2022-11-09T11:03:20.088Z,22.65
2022-11-09T11:06:45.885Z,22.98
2022-11-09T11:10:18.664Z,26.43
2022-11-09T11:13:41.774Z,26.73
2022-11-09T11:17:04.070Z,26.52
2022-11-09T11:20:28.419Z,25.50
2022-11-09T11:24:16.771Z,25.73
2022-11-09T11:27:56.144Z,26.10
2022-11-09T11:31:20.301Z,24.17
2022-11-09T11:35:02.347Z,22.98
2022-11-09T11:38:36.970Z,21.35
2022-11-09T11:42:04.611Z,21.05
2022-11-09T11:45:40.579Z,22.93
2022-11-09T11:49:31.342Z,27.23
2022-11-09T11:53:16.854Z,23.10
2022-11-09T11:56:48.079Z,25.83
2022-11-09T12:00:13.578Z,21.35
2022-11-09T12:03:56.362Z,23.23
2022-11-09T12:07:42.353Z,23.97
2022-11-09T12:11:19.401Z,23.35
2022-11-09T12:14:49.760Z,23.80
2022-11-09T12:18:30.074Z,26.80
2022-11-09T12:21:55.530Z,29.00
2022-11-09T12:25:26.344Z,26.37
2022-11-09T12:29:16.383Z,27.20
2022-11-09T12:32:41.232Z,34.30
2022-11-09T12:36:14.388Z,28.48
2022-11-09T12:39:47.465Z,26.03
2022-11-09T12:43:19.031Z,25.90
2022-11-09T12:46:48.920Z,25.40
2022-11-09T12:50:20.030Z,28.15
2022-11-09T12:53:41.800Z,26.58
2022-11-09T12:57:07.916Z,27.30
2022-11-09T13:00:35.576Z,26.70
2022-11-09T13:03:59.091Z,29.60
2022-11-09T13:07:51.748Z,31.85
2022-11-09T13:11:48.353Z,31.27
2022-11-09T13:15:32.524Z,31.77
2022-11-09T13:18:54.396Z,28.43
2022-11-09T13:22:16.080Z,32.33
2022-11-09T13:25:48.209Z,30.60
2022-11-09T13:29:19.073Z,28.30
2022-11-09T13:32:40.830Z,30.73
2022-11-09T13:36:08.358Z,28.27
2022-11-09T13:39:32.383Z,29.45
2022-11-09T13:43:06.412Z,31.70
2022-11-09T13:46:34.320Z,32.70
2022-11-09T13:49:56.154Z,34.33
2022-11-09T13:53:52.929Z,31.43
2022-11-09T13:57:16.568Z,34.80
2022-11-09T14:00:38.747Z,33.17
2022-11-09T14:04:01.390Z,32.92
2022-11-09T14:07:29.351Z,35.43
2022-11-09T14:11:09.969Z,31.37
2022-11-09T14:15:15.650Z,35.58
2022-11-09T14:19:06.473Z,35.50
2022-11-09T14:22:34.256Z,38.35
2022-11-09T14:25:57.043Z,40.90
2022-11-09T14:29:23.081Z,51.33
2022-11-09T14:32:49.993Z,52.15
2022-11-09T14:36:13.669Z,50.88
2022-11-09T14:39:37.299Z,52.55
2022-11-09T14:43:20.708Z,59.77
2022-11-09T14:46:42.568Z,63.33
2022-11-09T14:50:07.130Z,60.47
2022-11-09T14:53:36.698Z,68.95
2022-11-09T14:57:00.691Z,65.80
2022-11-09T15:00:23.225Z,64.60
2022-11-09T15:03:45.859Z,61.07
2022-11-09T15:07:15.720Z,59.10
2022-11-09T15:14:39.633Z,97.05
2022-11-09T15:18:02.524Z,110.73
2022-11-09T15:21:27.506Z,51.17
2022-11-09T15:24:49.429Z,117.40
2022-11-09T15:28:11.542Z,139.40
2022-11-09T15:31:33.517Z,159.38
2022-11-09T15:34:58.009Z,166.53
2022-11-09T15:38:30.959Z,154.63
2022-11-09T15:41:52.741Z,170.30
2022-11-09T15:45:16.373Z,120.55
2022-11-09T15:48:43.280Z,178.85
2022-11-09T15:52:09.158Z,145.17
2022-11-09T15:55:31.627Z,114.00
2022-11-09T15:58:54.095Z,103.95
2022-11-09T16:02:18.969Z,91.00
2022-11-09T16:05:41.127Z,90.35
2022-11-09T16:09:02.930Z,98.03
2022-11-09T16:12:25.358Z,71.10
2022-11-09T16:15:47.556Z,62.92
2022-11-09T16:19:13.621Z,64.35
2022-11-09T16:22:35.601Z,82.10
2022-11-09T16:25:57.225Z,97.43
2022-11-09T16:29:19.740Z,164.53
2022-11-09T16:32:42.253Z,181.55
2022-11-09T16:36:08.740Z,260.00
2022-11-09T16:39:34.195Z,130.65
2022-11-09T16:42:57.487Z,116.47
2022-11-09T16:46:24.848Z,175.67
2022-11-09T16:49:54.865Z,190.23
2022-11-09T16:53:17.107Z,186.40
2022-11-09T16:56:39.397Z,126.40
2022-11-09T17:00:01.401Z,164.40
2022-11-09T17:03:24.029Z,166.07
2022-11-09T17:06:46.357Z,234.15
2022-11-09T17:10:09.124Z,203.82
2022-11-09T17:13:31.198Z,190.65
2022-11-09T17:16:53.411Z,269.77
2022-11-09T17:20:18.422Z,188.07
2022-11-09T17:23:41.237Z,229.50
2022-11-09T17:27:03.433Z,296.08
2022-11-09T17:30:25.614Z,399.58
2022-11-09T17:33:48.137Z,296.33
2022-11-09T17:37:10.464Z,282.60
2022-11-09T17:40:32.950Z,241.32
2022-11-09T17:43:54.877Z,176.82
2022-11-09T17:47:16.696Z,136.57
2022-11-09T17:50:38.610Z,107.03
2022-11-09T17:54:01.945Z,89.23
2022-11-09T17:57:24.350Z,84.70
2022-11-09T18:00:46.912Z,88.03
2022-11-09T18:04:10.824Z,136.95
2022-11-09T18:07:32.662Z,189.57
2022-11-09T18:11:00.881Z,137.03
2022-11-09T18:14:22.645Z,114.75
2022-11-09T18:17:44.680Z,85.72
2022-11-09T18:21:15.629Z,132.52
2022-11-09T18:24:37.392Z,167.67
2022-11-09T18:27:59.105Z,98.97
2022-11-09T18:31:21.317Z,119.05
2022-11-09T18:34:43.148Z,123.82
2022-11-09T18:38:05.864Z,166.77
2022-11-09T18:41:30.223Z,117.63
2022-11-09T18:44:51.810Z,120.87
2022-11-09T18:48:15.054Z,157.05
2022-11-09T18:51:36.910Z,154.18
2022-11-09T18:55:00.348Z,94.43
2022-11-09T18:58:23.102Z,76.63
2022-11-09T19:01:45.767Z,109.23
2022-11-09T19:05:08.955Z,58.65
2022-11-09T19:08:49.939Z,52.70
2022-11-09T19:12:12.731Z,44.10
2022-11-09T19:15:35.515Z,49.97
2022-11-09T19:18:57.754Z,40.20
2022-11-09T19:22:19.949Z,39.85
2022-11-09T19:25:42.052Z,45.97
2022-11-09T19:29:04.076Z,43.13
2022-11-09T19:32:26.516Z,57.47
2022-11-09T19:36:23.386Z,56.83
2022-11-09T19:39:36.166Z,57.95
2022-11-09T19:42:59.847Z,52.70
2022-11-09T19:46:21.890Z,75.22
2022-11-09T19:49:44.347Z,98.43
2022-11-09T19:53:08.947Z,230.63
2022-11-09T19:56:33.073Z,174.38
2022-11-09T19:59:54.820Z,183.38
2022-11-09T20:03:16.589Z,466.17
2022-11-09T20:06:39.812Z,181.67
2022-11-09T20:10:03.519Z,294.07
2022-11-09T20:13:25.398Z,157.88
2022-11-09T20:16:48.482Z,149.77
2022-11-09T20:20:11.172Z,116.10
2022-11-09T20:23:33.514Z,84.67
2022-11-09T20:26:55.628Z,84.90
2022-11-09T20:30:18.135Z,169.43
2022-11-09T20:33:40.366Z,132.23
2022-11-09T20:37:02.249Z,105.18
2022-11-09T20:40:24.139Z,72.40
2022-11-09T20:43:46.869Z,67.67
2022-11-09T20:47:09.472Z,85.20
2022-11-09T20:50:33.313Z,60.83
2022-11-09T20:53:55.554Z,75.57
2022-11-09T20:57:17.449Z,55.77
2022-11-09T21:00:39.982Z,74.10
2022-11-09T21:04:02.283Z,65.40
2022-11-09T21:07:24.389Z,66.53
2022-11-09T21:10:46.063Z,63.92
2022-11-09T21:14:09.794Z,60.13
2022-11-09T21:17:31.725Z,53.83
2022-11-09T21:20:53.632Z,58.97
2022-11-09T21:24:34.070Z,41.55
2022-11-09T21:28:14.343Z,41.83
2022-11-09T21:31:36.012Z,40.93
2022-11-09T21:34:57.761Z,41.70
2022-11-09T21:38:19.879Z,42.15
2022-11-09T21:41:42.122Z,39.42
2022-11-09T21:45:08.081Z,41.95
2022-11-09T21:48:29.532Z,36.53
2022-11-09T21:51:51.772Z,60.43
2022-11-09T21:55:13.373Z,35.00
2022-11-09T21:58:35.239Z,37.70
2022-11-09T22:01:56.995Z,36.75
2022-11-09T22:05:23.016Z,40.07
2022-11-09T22:08:46.016Z,40.90
2022-11-09T22:12:26.698Z,43.40
2022-11-09T22:16:06.532Z,49.03
2022-11-09T22:19:47.225Z,34.38
2022-11-09T22:23:09.298Z,39.37
2022-11-09T22:26:31.946Z,44.87
2022-11-09T22:29:53.757Z,40.15
2022-11-09T22:33:19.834Z,40.53
2022-11-09T22:36:44.628Z,42.35
2022-11-09T22:40:07.304Z,41.50
2022-11-09T22:43:33.063Z,41.17
2022-11-09T22:46:55.158Z,42.22
2022-11-09T22:50:17.226Z,38.00
2022-11-09T22:53:39.404Z,41.10
2022-11-09T22:57:01.297Z,37.97
2022-11-09T23:00:23.424Z,42.03
2022-11-09T23:03:45.725Z,37.83
2022-11-09T23:07:07.565Z,42.95
2022-11-09T23:10:29.821Z,40.70
2022-11-09T23:13:55.535Z,40.37
2022-11-09T23:17:35.637Z,38.47
2022-11-09T23:21:00.746Z,38.13
2022-11-09T23:24:41.021Z,37.25
2022-11-09T23:28:03.133Z,40.67
2022-11-09T23:31:25.248Z,39.63
2022-11-09T23:34:47.232Z,36.03
2022-11-09T23:38:08.868Z,43.65
2022-11-09T23:41:30.868Z,40.95
2022-11-09T23:44:52.468Z,39.00
2022-11-09T23:48:17.298Z,38.03
2022-11-09T23:51:38.854Z,36.90
2022-11-09T23:55:00.661Z,37.42
2022-11-09T23:58:22.537Z,38.80
